PWSweather.com
Personal Weather Stations
Station Observations
KMIEASTT1
Tawas Bay, East Tawas, MI 48730

Tawas BayEast Tawas, MI 48730

Lat: 44.28, Lon: -83.48

Elevation: 600

Station Type: Davis VantagePro

http://www.tawasbayweather.com

High Low Average
Temperature 25.4°F-3.7°C 11.0°F-11.7°C 20.8°F-6.2°C
Dew Point 23.9°F-4.5°C 1.8°F-16.8°C 14.9°F-9.5°C
Winds 27.0 mph 43.5 kmh 3.0 mph 4.8 kmh 15.0 mph WSW24.1 kmh WSW
Wind Gusts 32.0 mph51.5 kmh 6.0 mph9.7 kmh 21.0 mph33.8 kmh
Humidity 95% 60% 78%
Pressure 30.01 in1016.3 mb 29.64 in1003.7 mb -
Precipitation 0.00 in0.0 mm - -
Hour Temp Dew Point Humidity Winds Wind Gusts Pressure Precip Precip Rate Daily Precip Total
12:01 AM 23.9°F-4.5°C 19.8°F-6.8°C 84% 20.0 mph S32.2 kmh S 26.0 mph41.8 kmh 29.96 in1014.6 mb 0.00 in0.0 mm 0.00 in/hr0.0 mm/hr 0.00 in0.0 mm
12:15 AM 23.7°F-4.6°C 19.3°F-7.1°C 83% 21.0 mph SSW33.8 kmh SSW 27.0 mph43.5 kmh 29.96 in1014.6 mb 0.00 in0.0 mm 0.00 in/hr0.0 mm/hr 0.00 in0.0 mm
12:30 AM 23.9°F-4.5°C 19.8°F-6.8°C 84% 22.0 mph S35.4 kmh S 29.0 mph46.7 kmh 29.95 in1014.2 mb 0.00 in0.0 mm 0.00 in/hr0.0 mm/hr 0.00 in0.0 mm
12:45 AM 24.2°F-4.3°C 19.8°F-6.8°C 83% 20.0 mph SSW32.2 kmh SSW 27.0 mph43.5 kmh 29.95 in1014.2 mb 0.00 in0.0 mm 0.00 in/hr0.0 mm/hr 0.00 in0.0 mm
01:01 AM 24.0°F-4.4°C 19.6°F-6.9°C 83% 20.0 mph SSW32.2 kmh SSW 27.0 mph43.5 kmh 29.95 in1014.2 mb 0.00 in0.0 mm 0.00 in/hr0.0 mm/hr 0.00 in0.0 mm
01:15 AM 24.1°F-4.4°C 19.4°F-7.0°C 82% 21.0 mph SSW33.8 kmh SSW 28.0 mph45.1 kmh 29.94 in1013.9 mb 0.00 in0.0 mm 0.00 in/hr0.0 mm/hr 0.00 in0.0 mm
01:30 AM 23.9°F-4.5°C 19.5°F-6.9°C 83% 26.0 mph SSW41.8 kmh SSW 30.0 mph48.3 kmh 29.92 in1013.2 mb 0.00 in0.0 mm 0.00 in/hr0.0 mm/hr 0.00 in0.0 mm
01:45 AM 23.8°F-4.6°C 20.0°F-6.7°C 85% 24.0 mph SSW38.6 kmh SSW 27.0 mph43.5 kmh 29.91 in1012.9 mb 0.00 in0.0 mm 0.00 in/hr0.0 mm/hr 0.00 in0.0 mm
02:00 AM 24.0°F-4.4°C 19.6°F-6.9°C 83% 27.0 mph S43.5 kmh S 31.0 mph49.9 kmh 29.89 in1012.2 mb 0.00 in0.0 mm 0.00 in/hr0.0 mm/hr 0.00 in0.0 mm
02:15 AM 23.9°F-4.5°C 19.8°F-6.8°C 84% 21.0 mph SSW33.8 kmh SSW 30.0 mph48.3 kmh 29.88 in1011.9 mb 0.00 in0.0 mm 0.00 in/hr0.0 mm/hr 0.00 in0.0 mm
02:30 AM 24.0°F-4.4°C 20.2°F-6.6°C 85% 25.0 mph S40.2 kmh S 32.0 mph51.5 kmh 29.87 in1011.5 mb 0.00 in0.0 mm 0.00 in/hr0.0 mm/hr 0.00 in0.0 mm
02:45 AM 24.0°F-4.4°C 19.9°F-6.7°C 84% 23.0 mph SSW37.0 kmh SSW 28.0 mph45.1 kmh 29.86 in1011.2 mb 0.00 in0.0 mm 0.00 in/hr0.0 mm/hr 0.00 in0.0 mm
03:01 AM 23.8°F-4.6°C 19.4°F-7.0°C 83% 18.0 mph SW29.0 kmh SW 27.0 mph43.5 kmh 29.85 in1010.8 mb 0.00 in0.0 mm 0.00 in/hr0.0 mm/hr 0.00 in0.0 mm
03:15 AM 24.0°F-4.4°C 19.9°F-6.7°C 84% 21.0 mph S33.8 kmh S 28.0 mph45.1 kmh 29.84 in1010.5 mb 0.00 in0.0 mm 0.00 in/hr0.0 mm/hr 0.00 in0.0 mm
03:30 AM 24.3°F-4.3°C 20.7°F-6.3°C 86% 26.0 mph S41.8 kmh S 29.0 mph46.7 kmh 29.82 in1009.8 mb 0.00 in0.0 mm 0.00 in/hr0.0 mm/hr 0.00 in0.0 mm
03:45 AM 24.2°F-4.3°C 20.1°F-6.6°C 84% 25.0 mph S40.2 kmh S 29.0 mph46.7 kmh 29.80 in1009.1 mb 0.00 in0.0 mm 0.00 in/hr0.0 mm/hr 0.00 in0.0 mm
04:00 AM 24.3°F-4.3°C 19.9°F-6.7°C 83% 24.0 mph S38.6 kmh S 30.0 mph48.3 kmh 29.78 in1008.5 mb 0.00 in0.0 mm 0.00 in/hr0.0 mm/hr 0.00 in0.0 mm
04:15 AM 24.5°F-4.2°C 20.4°F-6.4°C 84% 26.0 mph SSW41.8 kmh SSW 29.0 mph46.7 kmh 29.78 in1008.5 mb 0.00 in0.0 mm 0.00 in/hr0.0 mm/hr 0.00 in0.0 mm
04:30 AM 24.5°F-4.2°C 20.4°F-6.4°C 84% 21.0 mph SSW33.8 kmh SSW 29.0 mph46.7 kmh 29.77 in1008.1 mb 0.00 in0.0 mm 0.00 in/hr0.0 mm/hr 0.00 in0.0 mm
04:45 AM 25.0°F-3.9°C 21.1°F-6.1°C 85% 22.0 mph SSW35.4 kmh SSW 31.0 mph49.9 kmh 29.77 in1008.1 mb 0.00 in0.0 mm 0.00 in/hr0.0 mm/hr 0.00 in0.0 mm
05:01 AM 25.2°F-3.8°C 20.5°F-6.4°C 82% 21.0 mph SSW33.8 kmh SSW 28.0 mph45.1 kmh 29.76 in1007.8 mb 0.00 in0.0 mm 0.00 in/hr0.0 mm/hr 0.00 in0.0 mm
05:15 AM 25.3°F-3.7°C 20.6°F-6.3°C 82% 21.0 mph SW33.8 kmh SW 28.0 mph45.1 kmh 29.75 in1007.5 mb 0.00 in0.0 mm 0.00 in/hr0.0 mm/hr 0.00 in0.0 mm
05:30 AM 24.5°F-4.2°C 22.3°F-5.4°C 91% 22.0 mph SSW35.4 kmh SSW 27.0 mph43.5 kmh 29.74 in1007.1 mb 0.00 in0.0 mm 0.00 in/hr0.0 mm/hr 0.00 in0.0 mm
05:45 AM 24.4°F-4.2°C 22.7°F-5.2°C 93% 23.0 mph S37.0 kmh S 28.0 mph45.1 kmh 29.73 in1006.8 mb 0.00 in0.0 mm 0.00 in/hr0.0 mm/hr 0.00 in0.0 mm
06:01 AM 24.4°F-4.2°C 22.9°F-5.1°C 94% 20.0 mph S32.2 kmh S 26.0 mph41.8 kmh 29.72 in1006.4 mb 0.00 in0.0 mm 0.00 in/hr0.0 mm/hr 0.00 in0.0 mm
06:15 AM 24.5°F-4.2°C 23.0°F-5.0°C 94% 20.0 mph S32.2 kmh S 28.0 mph45.1 kmh 29.71 in1006.1 mb 0.00 in0.0 mm 0.00 in/hr0.0 mm/hr 0.00 in0.0 mm
06:30 AM 24.5°F-4.2°C 23.3°F-4.8°C 95% 23.0 mph S37.0 kmh S 29.0 mph46.7 kmh 29.70 in1005.8 mb 0.00 in0.0 mm 0.00 in/hr0.0 mm/hr 0.00 in0.0 mm
06:45 AM 24.9°F-3.9°C 23.4°F-4.8°C 94% 25.0 mph SSW40.2 kmh SSW 27.0 mph43.5 kmh 29.68 in1005.1 mb 0.00 in0.0 mm 0.00 in/hr0.0 mm/hr 0.00 in0.0 mm
07:01 AM 24.9°F-3.9°C 23.4°F-4.8°C 94% 18.0 mph SSW29.0 kmh SSW 25.0 mph40.2 kmh 29.66 in1004.4 mb 0.00 in0.0 mm 0.00 in/hr0.0 mm/hr 0.00 in0.0 mm
07:15 AM 25.1°F-3.8°C 23.6°F-4.7°C 94% 17.0 mph SSW27.4 kmh SSW 22.0 mph35.4 kmh 29.64 in1003.7 mb 0.00 in0.0 mm 0.00 in/hr0.0 mm/hr 0.00 in0.0 mm
07:30 AM 25.2°F-3.8°C 23.7°F-4.6°C 94% 15.0 mph SW24.1 kmh SW 24.0 mph38.6 kmh 29.64 in1003.7 mb 0.00 in0.0 mm 0.00 in/hr0.0 mm/hr 0.00 in0.0 mm
07:45 AM 25.4°F-3.7°C 23.9°F-4.5°C 94% 22.0 mph SW35.4 kmh SW 24.0 mph38.6 kmh 29.64 in1003.7 mb 0.00 in0.0 mm 0.00 in/hr0.0 mm/hr 0.00 in0.0 mm
08:01 AM 25.3°F-3.7°C 23.6°F-4.7°C 93% 15.0 mph SW24.1 kmh SW 22.0 mph35.4 kmh 29.65 in1004.1 mb 0.00 in0.0 mm 0.00 in/hr0.0 mm/hr 0.00 in0.0 mm
08:15 AM 25.4°F-3.7°C 23.7°F-4.6°C 93% 14.0 mph SW22.5 kmh SW 18.0 mph29.0 kmh 29.66 in1004.4 mb 0.00 in0.0 mm 0.00 in/hr0.0 mm/hr 0.00 in0.0 mm
08:30 AM 25.3°F-3.7°C 23.6°F-4.7°C 93% 13.0 mph SW20.9 kmh SW 19.0 mph30.6 kmh 29.66 in1004.4 mb 0.00 in0.0 mm 0.00 in/hr0.0 mm/hr 0.00 in0.0 mm
08:45 AM 25.1°F-3.8°C 23.4°F-4.8°C 93% 14.0 mph SW22.5 kmh SW 17.0 mph27.4 kmh 29.67 in1004.7 mb 0.00 in0.0 mm 0.00 in/hr0.0 mm/hr 0.00 in0.0 mm
09:01 AM 24.9°F-3.9°C 22.9°F-5.1°C 92% 12.0 mph WSW19.3 kmh WSW 14.0 mph22.5 kmh 29.68 in1005.1 mb 0.00 in0.0 mm 0.00 in/hr0.0 mm/hr 0.00 in0.0 mm
09:15 AM 24.6°F-4.1°C 22.4°F-5.3°C 91% 14.0 mph WSW22.5 kmh WSW 14.0 mph22.5 kmh 29.69 in1005.4 mb 0.00 in0.0 mm 0.00 in/hr0.0 mm/hr 0.00 in0.0 mm
09:31 AM 24.9°F-3.9°C 22.4°F-5.3°C 90% 13.0 mph WSW20.9 kmh WSW 15.0 mph24.1 kmh 29.69 in1005.4 mb 0.00 in0.0 mm 0.00 in/hr0.0 mm/hr 0.00 in0.0 mm
09:46 AM 24.9°F-3.9°C 21.0°F-6.1°C 85% 9.0 mph W14.5 kmh W 23.0 mph37.0 kmh 29.70 in1005.8 mb 0.00 in0.0 mm 0.00 in/hr0.0 mm/hr 0.00 in0.0 mm
10:02 AM 24.8°F-4.0°C 20.1°F-6.6°C 82% 9.0 mph W14.5 kmh W 22.0 mph35.4 kmh 29.71 in1006.1 mb 0.00 in0.0 mm 0.00 in/hr0.0 mm/hr 0.00 in0.0 mm
10:16 AM 24.5°F-4.2°C 19.5°F-6.9°C 81% 7.0 mph WNW11.3 kmh WNW 16.0 mph25.7 kmh 29.72 in1006.4 mb 0.00 in0.0 mm 0.00 in/hr0.0 mm/hr 0.00 in0.0 mm
10:31 AM 23.5°F-4.7°C 17.1°F-8.3°C 76% 13.0 mph NW20.9 kmh NW 21.0 mph33.8 kmh 29.73 in1006.8 mb 0.00 in0.0 mm 0.00 in/hr0.0 mm/hr 0.00 in0.0 mm
10:46 AM 22.8°F-5.1°C 14.5°F-9.7°C 70% 20.0 mph NW32.2 kmh NW 21.0 mph33.8 kmh 29.74 in1007.1 mb 0.00 in0.0 mm 0.00 in/hr0.0 mm/hr 0.00 in0.0 mm
11:02 AM 22.7°F-5.2°C 15.7°F-9.1°C 74% 5.0 mph W8.0 kmh W 11.0 mph17.7 kmh 29.75 in1007.5 mb 0.00 in0.0 mm 0.00 in/hr0.0 mm/hr 0.00 in0.0 mm
11:15 AM 22.3°F-5.4°C 15.0°F-9.4°C 73% 11.0 mph W17.7 kmh W 12.0 mph19.3 kmh 29.75 in1007.5 mb 0.00 in0.0 mm 0.00 in/hr0.0 mm/hr 0.00 in0.0 mm
11:31 AM 20.6°F-6.3°C 12.4°F-10.9°C 70% 9.0 mph WNW14.5 kmh WNW 18.0 mph29.0 kmh 29.76 in1007.8 mb 0.00 in0.0 mm 0.00 in/hr0.0 mm/hr 0.00 in0.0 mm
11:45 AM 20.6°F-6.3°C 11.4°F-11.4°C 67% 12.0 mph NW19.3 kmh NW 19.0 mph30.6 kmh 29.77 in1008.1 mb 0.00 in0.0 mm 0.00 in/hr0.0 mm/hr 0.00 in0.0 mm
12:02 PM 20.1°F-6.6°C 9.9°F-12.3°C 64% 14.0 mph W22.5 kmh W 20.0 mph32.2 kmh 29.77 in1008.1 mb 0.00 in0.0 mm 0.00 in/hr0.0 mm/hr 0.00 in0.0 mm
12:16 PM 19.5°F-6.9°C 9.0°F-12.8°C 63% 12.0 mph W19.3 kmh W 17.0 mph27.4 kmh 29.78 in1008.5 mb 0.00 in0.0 mm 0.00 in/hr0.0 mm/hr 0.00 in0.0 mm
12:31 PM 18.4°F-7.6°C 8.3°F-13.2°C 64% 15.0 mph W24.1 kmh W 21.0 mph33.8 kmh 29.78 in1008.5 mb 0.00 in0.0 mm 0.00 in/hr0.0 mm/hr 0.00 in0.0 mm
12:46 PM 19.3°F-7.1°C 9.5°F-12.5°C 65% 9.0 mph NW14.5 kmh NW 17.0 mph27.4 kmh 29.79 in1008.8 mb 0.00 in0.0 mm 0.00 in/hr0.0 mm/hr 0.00 in0.0 mm
01:02 PM 17.2°F-8.2°C 6.4°F-14.2°C 62% 14.0 mph WNW22.5 kmh WNW 24.0 mph38.6 kmh 29.80 in1009.1 mb 0.00 in0.0 mm 0.00 in/hr0.0 mm/hr 0.00 in0.0 mm
01:15 PM 16.4°F-8.7°C 6.7°F-14.1°C 65% 14.0 mph WNW22.5 kmh WNW 19.0 mph30.6 kmh 29.81 in1009.5 mb 0.00 in0.0 mm 0.00 in/hr0.0 mm/hr 0.00 in0.0 mm
01:31 PM 15.0°F-9.4°C 5.0°F-15.0°C 64% 18.0 mph NW29.0 kmh NW 20.0 mph32.2 kmh 29.82 in1009.8 mb 0.00 in0.0 mm 0.00 in/hr0.0 mm/hr 0.00 in0.0 mm
01:46 PM 14.6°F-9.7°C 4.0°F-15.6°C 62% 14.0 mph WSW22.5 kmh WSW 18.0 mph29.0 kmh 29.82 in1009.8 mb 0.00 in0.0 mm 0.00 in/hr0.0 mm/hr 0.00 in0.0 mm
02:02 PM 16.4°F-8.7°C 5.3°F-14.8°C 61% 11.0 mph WNW17.7 kmh WNW 16.0 mph25.7 kmh 29.83 in1010.2 mb 0.00 in0.0 mm 0.00 in/hr0.0 mm/hr 0.00 in0.0 mm
02:16 PM 15.2°F-9.3°C 5.6°F-14.7°C 65% 15.0 mph NW24.1 kmh NW 17.0 mph27.4 kmh 29.84 in1010.5 mb 0.00 in0.0 mm 0.00 in/hr0.0 mm/hr 0.00 in0.0 mm
02:31 PM 15.8°F-9.0°C 5.8°F-14.6°C 64% 12.0 mph NW19.3 kmh NW 16.0 mph25.7 kmh 29.84 in1010.5 mb 0.00 in0.0 mm 0.00 in/hr0.0 mm/hr 0.00 in0.0 mm
02:46 PM 15.8°F-9.0°C 5.5°F-14.7°C 63% 9.0 mph W14.5 kmh W 19.0 mph30.6 kmh 29.84 in1010.5 mb 0.00 in0.0 mm 0.00 in/hr0.0 mm/hr 0.00 in0.0 mm
03:01 PM 15.3°F-9.3°C 3.9°F-15.6°C 60% 10.0 mph W16.1 kmh W 16.0 mph25.7 kmh 29.85 in1010.8 mb 0.00 in0.0 mm 0.00 in/hr0.0 mm/hr 0.00 in0.0 mm
03:15 PM 14.9°F-9.5°C 3.9°F-15.6°C 61% 9.0 mph NW14.5 kmh NW 19.0 mph30.6 kmh 29.86 in1011.2 mb 0.00 in0.0 mm 0.00 in/hr0.0 mm/hr 0.00 in0.0 mm
03:31 PM 13.3°F-10.4°C 7.2°F-13.8°C 76% 9.0 mph NW14.5 kmh NW 20.0 mph32.2 kmh 29.88 in1011.9 mb 0.00 in0.0 mm 0.00 in/hr0.0 mm/hr 0.00 in0.0 mm
03:46 PM 13.1°F-10.5°C 6.1°F-14.4°C 73% 7.0 mph WNW11.3 kmh WNW 13.0 mph20.9 kmh 29.89 in1012.2 mb 0.00 in0.0 mm 0.00 in/hr0.0 mm/hr 0.00 in0.0 mm
04:02 PM 14.4°F-9.8°C 5.5°F-14.7°C 67% 7.0 mph NW11.3 kmh NW 14.0 mph22.5 kmh 29.90 in1012.5 mb 0.00 in0.0 mm 0.00 in/hr0.0 mm/hr 0.00 in0.0 mm
04:15 PM 13.4°F-10.3°C 4.8°F-15.1°C 68% 14.0 mph WNW22.5 kmh WNW 18.0 mph29.0 kmh 29.91 in1012.9 mb 0.00 in0.0 mm 0.00 in/hr0.0 mm/hr 0.00 in0.0 mm
04:31 PM 12.8°F-10.7°C 2.9°F-16.2°C 64% 8.0 mph WNW12.9 kmh WNW 15.0 mph24.1 kmh 29.91 in1012.9 mb 0.00 in0.0 mm 0.00 in/hr0.0 mm/hr 0.00 in0.0 mm
04:45 PM 13.2°F-10.4°C 1.9°F-16.7°C 60% 6.0 mph NW9.7 kmh NW 11.0 mph17.7 kmh 29.93 in1013.5 mb 0.00 in0.0 mm 0.00 in/hr0.0 mm/hr 0.00 in0.0 mm
05:01 PM 13.3°F-10.4°C 2.0°F-16.7°C 60% 6.0 mph WNW9.7 kmh WNW 13.0 mph20.9 kmh 29.94 in1013.9 mb 0.00 in0.0 mm 0.00 in/hr0.0 mm/hr 0.00 in0.0 mm
05:16 PM 12.8°F-10.7°C 1.9°F-16.7°C 61% 5.0 mph NW8.0 kmh NW 11.0 mph17.7 kmh 29.96 in1014.6 mb 0.00 in0.0 mm 0.00 in/hr0.0 mm/hr 0.00 in0.0 mm
05:31 PM 12.3°F-10.9°C 1.8°F-16.8°C 62% 11.0 mph WNW17.7 kmh WNW 17.0 mph27.4 kmh 29.97 in1014.9 mb 0.00 in0.0 mm 0.00 in/hr0.0 mm/hr 0.00 in0.0 mm
05:45 PM 11.8°F-11.2°C 2.0°F-16.7°C 64% 6.0 mph NW9.7 kmh NW 11.0 mph17.7 kmh 29.98 in1015.2 mb 0.00 in0.0 mm 0.00 in/hr0.0 mm/hr 0.00 in0.0 mm
06:02 PM 11.4°F-11.4°C 2.9°F-16.2°C 68% 6.0 mph WNW9.7 kmh WNW 7.0 mph11.3 kmh 29.99 in1015.6 mb 0.00 in0.0 mm 0.00 in/hr0.0 mm/hr 0.00 in0.0 mm
06:16 PM 11.2°F-11.6°C 3.0°F-16.1°C 69% 3.0 mph NW4.8 kmh NW 6.0 mph9.7 kmh 30.00 in1015.9 mb 0.00 in0.0 mm 0.00 in/hr0.0 mm/hr 0.00 in0.0 mm
06:31 PM 11.0°F-11.7°C 3.5°F-15.8°C 71% 3.0 mph W4.8 kmh W 7.0 mph11.3 kmh 30.01 in1016.3 mb 0.00 in0.0 mm 0.00 in/hr0.0 mm/hr 0.00 in0.0 mm
06:46 PM 10.7°F-11.8°C 3.8°F-15.7°C 73% 3.0 mph NW4.8 kmh NW 8.0 mph12.9 kmh 30.02 in1016.6 mb 0.00 in0.0 mm 0.00 in/hr0.0 mm/hr 0.00 in0.0 mm
07:02 PM 10.3°F-12.1°C 3.7°F-15.7°C 74% 3.0 mph WNW4.8 kmh WNW 4.0 mph6.4 kmh 30.03 in1016.9 mb 0.00 in0.0 mm 0.00 in/hr0.0 mm/hr 0.00 in0.0 mm
07:30 PM 9.6°F-12.4°C 3.3°F-15.9°C 75% 2.0 mph NW3.2 kmh NW 7.0 mph11.3 kmh 30.04 in1017.3 mb 0.00 in0.0 mm 0.00 in/hr0.0 mm/hr 0.00 in0.0 mm
07:46 PM 9.3°F-12.6°C 3.0°F-16.1°C 75% 3.0 mph NW4.8 kmh NW 5.0 mph8.0 kmh 30.05 in1017.6 mb 0.00 in0.0 mm 0.00 in/hr0.0 mm/hr 0.00 in0.0 mm
08:01 PM 9.0°F-12.8°C 3.0°F-16.1°C 76% 3.0 mph W4.8 kmh W 7.0 mph11.3 kmh 30.05 in1017.6 mb 0.00 in0.0 mm 0.00 in/hr0.0 mm/hr 0.00 in0.0 mm
08:16 PM 8.8°F-12.9°C 2.8°F-16.2°C 76% 3.0 mph NW4.8 kmh NW 6.0 mph9.7 kmh 30.06 in1017.9 mb 0.00 in0.0 mm 0.00 in/hr0.0 mm/hr 0.00 in0.0 mm
08:31 PM 8.6°F-13.0°C 2.9°F-16.2°C 77% 4.0 mph WSW6.4 kmh WSW 6.0 mph9.7 kmh 30.07 in1018.3 mb 0.00 in0.0 mm 0.00 in/hr0.0 mm/hr 0.00 in0.0 mm
08:46 PM 8.2°F-13.2°C 3.1°F-16.1°C 79% 5.0 mph W8.0 kmh W 7.0 mph11.3 kmh 30.08 in1018.6 mb 0.00 in0.0 mm 0.00 in/hr0.0 mm/hr 0.00 in0.0 mm
09:02 PM 8.0°F-13.3°C 3.4°F-15.9°C 81% 4.0 mph WSW6.4 kmh WSW 8.0 mph12.9 kmh 30.09 in1019.0 mb 0.00 in0.0 mm 0.00 in/hr0.0 mm/hr 0.00 in0.0 mm
09:16 PM 7.6°F-13.6°C 3.3°F-15.9°C 82% 8.0 mph WSW12.9 kmh WSW 8.0 mph12.9 kmh 30.09 in1019.0 mb 0.00 in0.0 mm 0.00 in/hr0.0 mm/hr 0.00 in0.0 mm
09:31 PM 7.6°F-13.6°C 3.3°F-15.9°C 82% 5.0 mph W8.0 kmh W 6.0 mph9.7 kmh 30.10 in1019.3 mb 0.00 in0.0 mm 0.00 in/hr0.0 mm/hr 0.00 in0.0 mm
09:46 PM 7.5°F-13.6°C 3.2°F-16.0°C 82% 3.0 mph WSW4.8 kmh WSW 7.0 mph11.3 kmh 30.11 in1019.6 mb 0.00 in0.0 mm 0.00 in/hr0.0 mm/hr 0.00 in0.0 mm
10:01 PM 7.3°F-13.7°C 3.0°F-16.1°C 82% 2.0 mph WNW3.2 kmh WNW 7.0 mph11.3 kmh 30.11 in1019.6 mb 0.00 in0.0 mm 0.00 in/hr0.0 mm/hr 0.00 in0.0 mm
10:16 PM 7.1°F-13.8°C 2.8°F-16.2°C 82% 4.0 mph W6.4 kmh W 8.0 mph12.9 kmh 30.11 in1019.6 mb 0.00 in0.0 mm 0.00 in/hr0.0 mm/hr 0.00 in0.0 mm
10:31 PM 6.9°F-13.9°C 2.6°F-16.3°C 82% 4.0 mph W6.4 kmh W 6.0 mph9.7 kmh 30.11 in1019.6 mb 0.00 in0.0 mm 0.00 in/hr0.0 mm/hr 0.00 in0.0 mm
10:46 PM 6.8°F-14.0°C 2.5°F-16.4°C 82% 5.0 mph WSW8.0 kmh WSW 6.0 mph9.7 kmh 30.12 in1020.0 mb 0.00 in0.0 mm 0.00 in/hr0.0 mm/hr 0.00 in0.0 mm
11:01 PM 6.5°F-14.2°C 2.2°F-16.6°C 82% 3.0 mph W4.8 kmh W 7.0 mph11.3 kmh 30.13 in1020.3 mb 0.00 in0.0 mm 0.00 in/hr0.0 mm/hr 0.00 in0.0 mm
11:16 PM 6.3°F-14.3°C 2.0°F-16.7°C 82% 2.0 mph W3.2 kmh W 6.0 mph9.7 kmh 30.14 in1020.7 mb 0.00 in0.0 mm 0.00 in/hr0.0 mm/hr 0.00 in0.0 mm
11:30 PM 6.0°F-14.4°C 1.7°F-16.8°C 82% 4.0 mph W6.4 kmh W 6.0 mph9.7 kmh 30.15 in1021.0 mb 0.00 in0.0 mm 0.00 in/hr0.0 mm/hr 0.00 in0.0 mm
11:46 PM 5.9°F-14.5°C 1.9°F-16.7°C 83% 3.0 mph W4.8 kmh W 7.0 mph11.3 kmh 30.16 in1021.3 mb 0.00 in0.0 mm 0.00 in/hr0.0 mm/hr 0.00 in0.0 mm